createdAt,value
2018-03-20T00:00:13.068Z,-4.20
2018-03-20T00:01:13.034Z,-4.20
2018-03-20T00:02:12.964Z,-4.22
2018-03-20T00:03:12.898Z,-4.18
2018-03-20T00:04:12.846Z,-4.28
2018-03-20T00:05:12.794Z,-4.28
2018-03-20T00:06:12.779Z,-4.26
2018-03-20T00:07:12.686Z,-4.26
2018-03-20T00:08:12.622Z,-4.20
2018-03-20T00:09:12.567Z,-4.23
2018-03-20T00:10:12.512Z,-4.26
2018-03-20T00:11:12.483Z,-4.26
2018-03-20T00:12:12.401Z,-4.26
2018-03-20T00:13:12.352Z,-4.38
2018-03-20T00:14:12.286Z,-4.49
2018-03-20T00:15:12.239Z,-4.46
2018-03-20T00:16:12.202Z,-4.50
2018-03-20T00:17:12.124Z,-4.57
2018-03-20T00:18:12.064Z,-4.50
2018-03-20T00:19:12.009Z,-4.65
2018-03-20T00:20:11.960Z,-4.60
2018-03-20T00:21:11.925Z,-4.70
2018-03-20T00:22:11.846Z,-4.64
2018-03-20T00:23:11.791Z,-4.71
2018-03-20T00:24:11.738Z,-4.78
2018-03-20T00:25:11.674Z,-4.75
2018-03-20T00:26:11.654Z,-4.81
2018-03-20T00:27:11.566Z,-4.70
2018-03-20T00:28:11.509Z,-4.82
2018-03-20T00:29:11.458Z,-4.81
2018-03-20T00:30:11.398Z,-4.68
2018-03-20T00:31:11.370Z,-4.74
2018-03-20T00:32:11.290Z,-4.70
2018-03-20T00:33:11.236Z,-4.60
2018-03-20T00:34:11.176Z,-4.54
2018-03-20T00:35:11.120Z,-4.49
2018-03-20T00:36:11.087Z,-4.47
2018-03-20T00:37:11.012Z,-4.46
2018-03-20T00:38:10.951Z,-4.50
2018-03-20T00:39:10.897Z,-4.49
2018-03-20T00:40:10.842Z,-4.52
2018-03-20T00:41:10.808Z,-4.44
2018-03-20T00:42:10.730Z,-4.52
2018-03-20T00:43:10.677Z,-4.47
2018-03-20T00:44:10.623Z,-4.49
2018-03-20T00:45:10.563Z,-4.54
2018-03-20T00:46:10.508Z,-4.50
2018-03-20T00:47:10.484Z,-4.39
2018-03-20T00:48:10.412Z,-4.39
2018-03-20T00:49:10.352Z,-4.33
2018-03-20T00:50:10.290Z,-4.28
2018-03-20T00:51:10.239Z,-4.33
2018-03-20T00:52:10.196Z,-4.26
2018-03-20T00:53:10.126Z,-4.20
2018-03-20T00:54:10.064Z,-4.07
2018-03-20T00:55:10.016Z,-4.14
2018-03-20T00:56:09.954Z,-4.07
2018-03-20T00:57:09.937Z,-4.02
2018-03-20T00:58:09.847Z,-3.99
2018-03-20T00:59:09.790Z,-3.92
2018-03-20T01:00:09.729Z,-3.97
2018-03-20T01:01:09.681Z,-3.99
2018-03-20T01:02:09.653Z,-3.86
2018-03-20T01:03:09.567Z,-3.78
2018-03-20T01:04:09.519Z,-3.65
2018-03-20T01:05:09.455Z,-3.70
2018-03-20T01:06:09.405Z,-3.62
2018-03-20T01:07:09.372Z,-3.60
2018-03-20T01:08:09.288Z,-3.56
2018-03-20T01:09:09.238Z,-3.52
2018-03-20T01:10:09.178Z,-3.50
2018-03-20T01:11:09.125Z,-3.47
2018-03-20T01:12:09.092Z,-3.39
2018-03-20T01:13:09.015Z,-3.42
2018-03-20T01:14:08.999Z,-3.35
2018-03-20T01:15:08.905Z,-3.34
2018-03-20T01:16:08.852Z,-3.38
2018-03-20T01:17:08.816Z,-3.29
2018-03-20T01:18:08.741Z,-3.31
2018-03-20T01:19:08.688Z,-3.26
2018-03-20T01:20:08.631Z,-3.23
2018-03-20T01:21:08.573Z,-3.11
2018-03-20T01:22:08.545Z,-3.14
2018-03-20T01:23:08.467Z,-3.13
2018-03-20T01:24:08.414Z,-3.17
2018-03-20T01:25:08.355Z,-3.14
2018-03-20T01:26:08.303Z,-3.09
2018-03-20T01:27:08.268Z,-3.11
2018-03-20T01:28:08.194Z,-3.09
2018-03-20T01:29:08.138Z,-2.96
2018-03-20T01:30:08.088Z,-3.05
2018-03-20T01:31:08.028Z,-2.96
2018-03-20T01:32:08.004Z,-2.92
2018-03-20T01:33:07.916Z,-3.00
2018-03-20T01:34:07.865Z,-2.88
2018-03-20T01:35:07.812Z,-2.85
2018-03-20T01:36:07.756Z,-2.87
2018-03-20T01:37:07.729Z,-2.82
2018-03-20T01:38:07.646Z,-2.88
2018-03-20T01:39:07.591Z,-2.80
2018-03-20T01:40:07.536Z,-2.75
2018-03-20T01:41:07.484Z,-2.66
2018-03-20T01:42:07.456Z,-2.80
2018-03-20T01:43:07.377Z,-2.80
2018-03-20T01:44:07.318Z,-2.71
2018-03-20T01:45:07.266Z,-2.74
2018-03-20T01:46:07.212Z,-2.69
2018-03-20T01:47:07.179Z,-2.64
2018-03-20T01:48:07.102Z,-2.54
2018-03-20T01:49:07.047Z,-2.51
2018-03-20T01:50:06.991Z,-2.57
2018-03-20T01:51:06.939Z,-2.53
2018-03-20T01:52:06.906Z,-2.49
2018-03-20T01:53:06.834Z,-2.49
2018-03-20T01:54:06.775Z,-2.51
2018-03-20T01:55:06.719Z,-2.53
2018-03-20T01:56:06.667Z,-2.42
2018-03-20T01:57:06.633Z,-2.42
2018-03-20T01:58:06.557Z,-2.48
2018-03-20T01:59:06.502Z,-2.36
2018-03-20T02:00:06.452Z,-2.39
2018-03-20T02:01:06.393Z,-2.36
2018-03-20T02:02:06.362Z,-2.35
2018-03-20T02:03:06.313Z,-2.29
2018-03-20T02:04:06.232Z,-2.36
2018-03-20T02:05:06.178Z,-2.35
2018-03-20T02:06:06.122Z,-2.30
2018-03-20T02:07:06.093Z,-2.33
2018-03-20T02:08:06.015Z,-2.30
2018-03-20T02:09:05.964Z,-2.26
2018-03-20T02:10:05.905Z,-2.23
2018-03-20T02:11:05.849Z,-2.33
2018-03-20T02:12:05.823Z,-2.33
2018-03-20T02:13:05.744Z,-2.24
2018-03-20T02:14:05.689Z,-2.22
2018-03-20T02:15:05.633Z,-2.19
2018-03-20T02:16:05.586Z,-2.17
2018-03-20T02:17:05.551Z,-2.22
2018-03-20T02:18:05.469Z,-2.17
2018-03-20T02:19:05.418Z,-2.17
2018-03-20T02:20:05.367Z,-2.22
2018-03-20T02:21:05.340Z,-2.11
2018-03-20T02:22:05.280Z,-2.14
2018-03-20T02:23:05.201Z,-2.12
2018-03-20T02:24:05.144Z,-2.05
2018-03-20T02:25:05.094Z,-2.09
2018-03-20T02:26:05.039Z,-2.04
2018-03-20T02:27:05.009Z,-2.06
2018-03-20T02:28:04.929Z,-2.01
2018-03-20T02:29:04.873Z,-2.08
2018-03-20T02:30:04.829Z,-1.99
2018-03-20T02:31:04.772Z,-1.98
2018-03-20T02:32:04.744Z,-1.94
2018-03-20T02:33:04.662Z,-1.98
2018-03-20T02:34:04.608Z,-1.98
2018-03-20T02:35:04.550Z,-1.91
2018-03-20T02:36:04.501Z,-1.98
2018-03-20T02:37:04.471Z,-1.93
2018-03-20T02:38:04.392Z,-1.86
2018-03-20T02:39:04.340Z,-1.90
2018-03-20T02:40:04.284Z,-1.88
2018-03-20T02:41:04.232Z,-1.83
2018-03-20T02:42:04.201Z,-1.86
2018-03-20T02:43:04.120Z,-1.83
2018-03-20T02:44:04.066Z,-1.86
2018-03-20T02:45:04.017Z,-1.96
2018-03-20T02:46:03.959Z,-1.90
2018-03-20T02:47:03.930Z,-1.84
2018-03-20T02:48:03.854Z,-1.80
2018-03-20T02:49:03.798Z,-1.83
2018-03-20T02:50:03.748Z,-1.83
2018-03-20T02:51:03.701Z,-1.80
2018-03-20T02:52:03.656Z,-1.81
2018-03-20T02:53:03.579Z,-1.75
2018-03-20T02:54:03.528Z,-1.80
2018-03-20T02:55:03.475Z,-1.77
2018-03-20T02:56:03.424Z,-1.73
2018-03-20T02:57:03.390Z,-1.78
2018-03-20T02:58:03.313Z,-1.84
2018-03-20T02:59:03.260Z,-1.83
2018-03-20T03:00:03.205Z,-1.83
2018-03-20T03:01:03.150Z,-1.83
2018-03-20T03:02:03.120Z,-1.86
2018-03-20T03:03:03.042Z,-1.90
2018-03-20T03:04:02.994Z,-1.83
2018-03-20T03:05:02.942Z,-1.90
2018-03-20T03:06:02.879Z,-1.94
2018-03-20T03:07:02.852Z,-1.93
2018-03-20T03:08:02.772Z,-1.96
2018-03-20T03:09:02.721Z,-2.01
2018-03-20T03:10:02.666Z,-1.91
2018-03-20T03:11:02.609Z,-1.96
2018-03-20T03:12:02.587Z,-1.96
2018-03-20T03:13:02.501Z,-1.98
2018-03-20T03:14:02.465Z,-1.93
2018-03-20T03:15:02.408Z,-1.99
2018-03-20T03:16:02.346Z,-1.98
2018-03-20T03:17:02.307Z,-2.01
2018-03-20T03:18:02.232Z,-2.01
2018-03-20T03:19:02.176Z,-2.02
2018-03-20T03:20:02.122Z,-2.02
2018-03-20T03:21:02.068Z,-1.96
2018-03-20T03:22:02.038Z,-1.99
2018-03-20T03:23:01.963Z,-2.04
2018-03-20T03:24:01.906Z,-1.94
2018-03-20T03:25:01.854Z,-1.94
2018-03-20T03:26:01.796Z,-2.02
2018-03-20T03:27:01.769Z,-2.05
2018-03-20T03:28:01.691Z,-2.02
2018-03-20T03:29:01.635Z,-2.08
2018-03-20T03:30:01.581Z,-2.05
2018-03-20T03:31:01.526Z,-2.05
2018-03-20T03:32:01.510Z,-2.11
2018-03-20T03:33:01.418Z,-2.17
2018-03-20T03:34:01.369Z,-2.12
2018-03-20T03:35:01.314Z,-2.17
2018-03-20T03:36:01.253Z,-2.12
2018-03-20T03:37:01.202Z,-2.08
2018-03-20T03:38:01.168Z,-2.08
2018-03-20T03:39:01.092Z,-2.01
2018-03-20T03:40:01.041Z,-2.04
2018-03-20T03:41:00.986Z,-2.09
2018-03-20T03:42:00.928Z,-2.06
2018-03-20T03:43:00.901Z,-2.05
2018-03-20T03:44:00.819Z,-1.99
2018-03-20T03:45:00.767Z,-1.98
2018-03-20T03:46:00.714Z,-2.02
2018-03-20T03:47:00.658Z,-2.01
2018-03-20T03:48:00.633Z,-2.02
2018-03-20T03:49:00.547Z,-2.11
2018-03-20T03:50:00.496Z,-2.09
2018-03-20T03:51:00.441Z,-1.94
2018-03-20T03:52:00.386Z,-2.04
2018-03-20T03:53:00.370Z,-1.94
2018-03-20T03:54:00.279Z,-1.99
2018-03-20T03:55:00.226Z,-1.94
2018-03-20T03:56:00.172Z,-1.90
2018-03-20T03:57:00.117Z,-1.98
2018-03-20T03:58:00.091Z,-1.87
2018-03-20T03:59:00.008Z,-1.99
2018-03-20T03:59:59.956Z,-1.93
2018-03-20T04:00:59.910Z,-1.93
2018-03-20T04:01:59.847Z,-1.96
2018-03-20T04:02:59.816Z,-1.91
2018-03-20T04:03:59.739Z,-1.91
2018-03-20T04:04:59.685Z,-1.99
2018-03-20T04:05:59.628Z,-1.96
2018-03-20T04:06:59.573Z,-1.99
2018-03-20T04:07:59.565Z,-1.98
2018-03-20T04:08:59.466Z,-1.91
2018-03-20T04:09:59.412Z,-1.99
2018-03-20T04:11:06.559Z,-1.90
2018-03-20T04:11:59.302Z,-1.88
2018-03-20T04:12:59.275Z,-1.96
2018-03-20T04:13:59.199Z,-1.94
2018-03-20T04:14:59.141Z,-1.94
2018-03-20T04:15:59.087Z,-1.91
2018-03-20T04:16:59.033Z,-1.87
2018-03-20T04:17:59.001Z,-1.96
2018-03-20T04:18:58.927Z,-1.93
2018-03-20T04:19:58.868Z,-1.96
2018-03-20T04:20:58.824Z,-1.87
2018-03-20T04:21:58.761Z,-1.96
2018-03-20T04:22:58.731Z,-1.90
2018-03-20T04:23:58.654Z,-1.99
2018-03-20T04:24:58.601Z,-1.86
2018-03-20T04:25:58.543Z,-1.88
2018-03-20T04:26:58.492Z,-1.86
2018-03-20T04:27:58.457Z,-1.81
2018-03-20T04:28:58.386Z,-1.91
2018-03-20T04:29:58.325Z,-1.94
2018-03-20T04:30:58.274Z,-1.84
2018-03-20T04:31:58.221Z,-1.87
2018-03-20T04:32:58.191Z,-1.90
2018-03-20T04:33:58.117Z,-1.84
2018-03-20T04:34:58.060Z,-1.93
2018-03-20T04:35:58.004Z,-1.78
2018-03-20T04:36:57.949Z,-1.86
2018-03-20T04:37:57.920Z,-1.86
2018-03-20T04:38:57.841Z,-1.93
2018-03-20T04:39:57.788Z,-1.90
2018-03-20T04:40:57.739Z,-1.93
2018-03-20T04:41:57.680Z,-1.83
2018-03-20T04:42:57.650Z,-1.94
2018-03-20T04:43:57.568Z,-1.83
2018-03-20T04:44:57.513Z,-1.99
2018-03-20T04:45:57.458Z,-1.93
2018-03-20T04:46:57.416Z,-1.91
2018-03-20T04:47:57.376Z,-2.04
2018-03-20T04:48:57.301Z,-1.99
2018-03-20T04:49:57.245Z,-1.93
2018-03-20T04:50:57.186Z,-1.93
2018-03-20T04:51:57.132Z,-1.98
2018-03-20T04:52:57.110Z,-1.90
2018-03-20T04:53:57.029Z,-1.87
2018-03-20T04:54:56.973Z,-1.84
2018-03-20T04:55:56.926Z,-1.93
2018-03-20T04:56:56.866Z,-1.83
2018-03-20T04:57:56.838Z,-1.91
2018-03-20T04:58:56.757Z,-1.86
2018-03-20T04:59:56.704Z,-1.83
2018-03-20T05:00:56.647Z,-1.86
2018-03-20T05:01:56.592Z,-1.78
2018-03-20T05:02:56.572Z,-1.83
2018-03-20T05:03:56.487Z,-1.80
2018-03-20T05:04:56.438Z,-1.80
2018-03-20T05:05:56.378Z,-1.75
2018-03-20T05:06:56.325Z,-1.73
2018-03-20T05:07:56.350Z,-1.78
2018-03-20T05:08:56.217Z,-1.72
2018-03-20T05:09:56.159Z,-1.75
2018-03-20T05:10:56.110Z,-1.78
2018-03-20T05:11:56.056Z,-1.78
2018-03-20T05:12:56.024Z,-1.70
2018-03-20T05:13:55.946Z,-1.66
2018-03-20T05:14:55.889Z,-1.80
2018-03-20T05:15:55.839Z,-1.65
2018-03-20T05:16:55.782Z,-1.62
2018-03-20T05:17:55.761Z,-1.63
2018-03-20T05:18:55.676Z,-1.55
2018-03-20T05:19:55.617Z,-1.63
2018-03-20T05:20:55.565Z,-1.60
2018-03-20T05:21:55.515Z,-1.60
2018-03-20T05:22:55.483Z,-1.67
2018-03-20T05:23:55.405Z,-1.62
2018-03-20T05:24:55.351Z,-1.59
2018-03-20T05:25:55.298Z,-1.55
2018-03-20T05:26:55.241Z,-1.52
2018-03-20T05:27:55.218Z,-1.63
2018-03-20T05:28:55.145Z,-1.62
2018-03-20T05:29:55.084Z,-1.57
2018-03-20T05:30:55.026Z,-1.63
2018-03-20T05:31:54.972Z,-1.62
2018-03-20T05:32:54.940Z,-1.57
2018-03-20T05:33:54.866Z,-1.59
2018-03-20T05:34:54.813Z,-1.48
2018-03-20T05:35:54.760Z,-1.60
2018-03-20T05:36:54.702Z,-1.59
2018-03-20T05:37:54.686Z,-1.59
2018-03-20T05:38:54.602Z,-1.59
2018-03-20T05:39:54.539Z,-1.63
2018-03-20T05:40:54.485Z,-1.63
2018-03-20T05:41:54.484Z,-1.62
2018-03-20T05:42:54.377Z,-1.66
2018-03-20T05:43:54.346Z,-1.65
2018-03-20T05:44:54.273Z,-1.66
2018-03-20T05:45:54.215Z,-1.57
2018-03-20T05:46:54.161Z,-1.54
2018-03-20T05:47:54.111Z,-1.66
2018-03-20T05:48:54.096Z,-1.63
2018-03-20T05:49:54.001Z,-1.54
2018-03-20T05:50:53.963Z,-1.63
2018-03-20T05:51:53.889Z,-1.60
2018-03-20T05:52:53.843Z,-1.59
2018-03-20T05:53:53.807Z,-1.54
2018-03-20T05:54:53.744Z,-1.60
2018-03-20T05:55:53.676Z,-1.66
2018-03-20T05:56:53.630Z,-1.63
2018-03-20T05:57:53.567Z,-1.65
2018-03-20T05:58:53.535Z,-1.62
2018-03-20T05:59:53.461Z,-1.57
2018-03-20T06:00:53.407Z,-1.63
2018-03-20T06:01:53.353Z,-1.62
2018-03-20T06:02:53.303Z,-1.55
2018-03-20T06:03:53.266Z,-1.65
2018-03-20T06:04:53.187Z,-1.60
2018-03-20T06:05:53.137Z,-1.54
2018-03-20T06:06:53.081Z,-1.65
2018-03-20T06:07:53.029Z,-1.60
2018-03-20T06:08:52.998Z,-1.55
2018-03-20T06:09:52.920Z,-1.47
2018-03-20T06:10:52.866Z,-1.55
2018-03-20T06:11:52.808Z,-1.54
2018-03-20T06:12:52.755Z,-1.60
2018-03-20T06:13:52.729Z,-1.51
2018-03-20T06:14:52.650Z,-1.45
2018-03-20T06:15:52.597Z,-1.52
2018-03-20T06:16:52.542Z,-1.49
2018-03-20T06:17:52.492Z,-1.42
2018-03-20T06:18:52.472Z,-1.47
2018-03-20T06:19:52.385Z,-1.44
2018-03-20T06:20:52.326Z,-1.44
2018-03-20T06:21:52.319Z,-1.37
2018-03-20T06:22:52.224Z,-1.41
2018-03-20T06:23:52.170Z,-1.39
2018-03-20T06:24:52.138Z,-1.31
2018-03-20T06:25:52.063Z,-1.37
2018-03-20T06:26:52.003Z,-1.37
2018-03-20T06:27:51.953Z,-1.36
2018-03-20T06:28:51.898Z,-1.30
2018-03-20T06:29:51.866Z,-1.31
2018-03-20T06:30:51.792Z,-1.31
2018-03-20T06:31:51.739Z,-1.36
2018-03-20T06:32:51.684Z,-1.31
2018-03-20T06:33:51.626Z,-1.30
2018-03-20T06:34:51.600Z,-1.21
2018-03-20T06:35:51.519Z,-1.30
2018-03-20T06:36:51.467Z,-1.27
2018-03-20T06:37:51.417Z,-1.33
2018-03-20T06:38:51.421Z,-1.30
2018-03-20T06:39:51.350Z,-1.30
2018-03-20T06:40:51.251Z,-1.29
2018-03-20T06:41:51.202Z,-1.41
2018-03-20T06:42:51.154Z,-1.31
2018-03-20T06:43:51.094Z,-1.41
2018-03-20T06:44:51.059Z,-1.37
2018-03-20T06:45:50.985Z,-1.33
2018-03-20T06:46:50.928Z,-1.42
2018-03-20T06:47:50.883Z,-1.31
2018-03-20T06:48:50.822Z,-1.31
2018-03-20T06:49:50.793Z,-1.30
2018-03-20T06:50:50.720Z,-1.42
2018-03-20T06:51:50.665Z,-1.37
2018-03-20T06:52:50.612Z,-1.36
2018-03-20T06:53:50.553Z,-1.36
2018-03-20T06:54:50.526Z,-1.37
2018-03-20T06:55:50.449Z,-1.39
2018-03-20T06:56:50.395Z,-1.39
2018-03-20T06:57:50.347Z,-1.36
2018-03-20T06:58:50.288Z,-1.36
2018-03-20T06:59:50.256Z,-1.34
2018-03-20T07:00:50.178Z,-1.33
2018-03-20T07:01:50.125Z,-1.31
2018-03-20T07:02:50.071Z,-1.31
2018-03-20T07:03:50.018Z,-1.30
2018-03-20T07:04:49.992Z,-1.24
2018-03-20T07:05:49.919Z,-1.31
2018-03-20T07:06:49.858Z,-1.23
2018-03-20T07:07:49.802Z,-1.26
2018-03-20T07:08:49.751Z,-1.21
2018-03-20T07:09:49.719Z,-1.19
2018-03-20T07:10:49.642Z,-1.26
2018-03-20T07:11:49.660Z,-1.26
2018-03-20T07:12:49.547Z,-1.21
2018-03-20T07:13:49.482Z,-1.30
2018-03-20T07:14:49.453Z,-1.36
2018-03-20T07:15:49.375Z,-1.29
2018-03-20T07:16:49.320Z,-1.36
2018-03-20T07:17:49.268Z,-1.34
2018-03-20T07:18:49.215Z,-1.29
2018-03-20T07:19:49.186Z,-1.27
2018-03-20T07:20:49.106Z,-1.21
2018-03-20T07:21:49.054Z,-1.16
2018-03-20T07:22:49.024Z,-1.09
2018-03-20T07:23:48.943Z,-1.09
2018-03-20T07:24:48.915Z,-0.83
2018-03-20T07:25:48.836Z,-0.65
2018-03-20T07:26:48.785Z,-0.58
2018-03-20T07:27:48.732Z,-0.46
2018-03-20T07:28:48.675Z,-0.42
2018-03-20T07:29:48.649Z,-0.39
2018-03-20T07:30:48.571Z,-0.18
2018-03-20T07:31:48.515Z,-0.15
2018-03-20T07:32:48.463Z,-0.03
2018-03-20T07:33:48.411Z,0.14
2018-03-20T07:34:48.385Z,0.17
2018-03-20T07:35:48.299Z,0.46
2018-03-20T07:36:48.249Z,0.66
2018-03-20T07:37:48.193Z,0.82
2018-03-20T07:38:48.148Z,0.83
2018-03-20T07:39:48.146Z,0.95
2018-03-20T07:40:48.034Z,1.15
2018-03-20T07:41:47.979Z,1.26
2018-03-20T07:42:47.927Z,1.34
2018-03-20T07:43:47.880Z,1.41
2018-03-20T07:44:47.845Z,1.55
2018-03-20T07:45:47.768Z,1.55
2018-03-20T07:46:47.711Z,1.67
2018-03-20T07:47:47.661Z,1.70
2018-03-20T07:48:47.619Z,1.73
2018-03-20T07:49:47.576Z,1.76
2018-03-20T07:50:47.499Z,1.67
2018-03-20T07:51:47.444Z,1.73
2018-03-20T07:52:47.392Z,1.69
2018-03-20T07:53:47.342Z,1.76
2018-03-20T07:54:47.312Z,1.81
2018-03-20T07:55:47.232Z,1.81
2018-03-20T07:56:47.186Z,1.88
2018-03-20T07:57:47.136Z,1.85
2018-03-20T07:58:47.076Z,1.85
2018-03-20T07:59:47.045Z,1.91
2018-03-20T08:00:46.970Z,1.88
2018-03-20T08:01:46.967Z,1.90
2018-03-20T08:02:46.867Z,1.90
2018-03-20T08:03:46.812Z,1.87
2018-03-20T08:04:46.781Z,1.94
2018-03-20T08:05:46.715Z,1.81
2018-03-20T08:06:46.653Z,1.92
2018-03-20T08:07:46.598Z,1.94
2018-03-20T08:08:46.546Z,2.04
2018-03-20T08:09:46.520Z,2.06
2018-03-20T08:10:46.440Z,2.10
2018-03-20T08:11:46.391Z,2.17
2018-03-20T08:12:46.339Z,2.16
2018-03-20T08:13:46.307Z,2.25
2018-03-20T08:14:46.255Z,2.16
2018-03-20T08:15:46.180Z,2.25
2018-03-20T08:16:46.138Z,2.22
2018-03-20T08:17:46.073Z,2.32
2018-03-20T08:18:46.021Z,2.32
2018-03-20T08:19:45.997Z,2.32
2018-03-20T08:20:45.917Z,2.39
2018-03-20T08:21:45.862Z,2.47
2018-03-20T08:22:45.815Z,2.45
2018-03-20T08:23:45.756Z,2.47
2018-03-20T08:24:45.733Z,2.45
2018-03-20T08:25:45.654Z,2.45
2018-03-20T08:26:45.604Z,2.47
2018-03-20T08:27:45.549Z,2.47
2018-03-20T08:28:45.497Z,2.46
2018-03-20T08:29:45.469Z,2.47
2018-03-20T08:30:45.391Z,2.45
2018-03-20T08:31:45.336Z,2.49
2018-03-20T08:32:45.295Z,2.46
2018-03-20T08:33:45.237Z,2.43
2018-03-20T08:34:45.208Z,2.49
2018-03-20T08:35:45.132Z,2.47
2018-03-20T08:36:45.081Z,2.55
2018-03-20T08:37:45.030Z,2.58
2018-03-20T08:38:44.976Z,2.64
2018-03-20T08:39:44.942Z,2.70
2018-03-20T08:40:44.874Z,2.76
2018-03-20T08:41:44.823Z,2.74
2018-03-20T08:42:44.773Z,2.86
2018-03-20T08:43:44.717Z,2.92
2018-03-20T08:44:44.686Z,3.04
2018-03-20T08:45:44.614Z,2.97
2018-03-20T08:46:44.561Z,3.01
2018-03-20T08:47:44.509Z,2.99
2018-03-20T08:48:44.458Z,2.82
2018-03-20T08:49:44.431Z,2.89
2018-03-20T08:50:44.353Z,2.92
2018-03-20T08:51:44.303Z,2.79
2018-03-20T08:52:44.247Z,2.81
2018-03-20T08:53:44.194Z,2.88
2018-03-20T08:54:44.169Z,2.91
2018-03-20T08:55:44.096Z,2.83
2018-03-20T08:56:44.047Z,2.89
2018-03-20T08:57:43.988Z,2.81
2018-03-20T08:58:43.937Z,2.81
2018-03-20T08:59:43.907Z,2.76
2018-03-20T09:00:43.833Z,2.71
2018-03-20T09:01:43.785Z,2.78
2018-03-20T09:02:43.734Z,2.70
2018-03-20T09:03:43.676Z,2.67
2018-03-20T09:04:43.647Z,2.67
2018-03-20T09:05:43.570Z,2.73
2018-03-20T09:06:43.522Z,2.88
2018-03-20T09:07:43.469Z,2.91
2018-03-20T09:08:43.415Z,2.97
2018-03-20T09:09:43.386Z,3.12
2018-03-20T09:10:43.706Z,3.03
2018-03-20T09:11:43.258Z,3.04
2018-03-20T09:12:43.208Z,3.09
2018-03-20T09:13:43.163Z,3.18
2018-03-20T09:14:43.133Z,3.40
2018-03-20T09:15:43.052Z,3.37
2018-03-20T09:16:43.006Z,3.37
2018-03-20T09:17:42.949Z,3.37
2018-03-20T09:18:42.900Z,3.28
2018-03-20T09:19:42.846Z,3.29
2018-03-20T09:20:42.814Z,3.24
2018-03-20T09:21:42.741Z,3.18
2018-03-20T09:22:42.694Z,3.21
2018-03-20T09:23:42.639Z,3.15
2018-03-20T09:24:42.585Z,3.12
2018-03-20T09:25:42.558Z,3.21
2018-03-20T09:26:42.484Z,3.21
2018-03-20T09:27:42.429Z,3.25
2018-03-20T09:28:42.377Z,3.25
2018-03-20T09:29:42.327Z,3.25
2018-03-20T09:30:42.300Z,3.21
2018-03-20T09:31:42.222Z,3.25
2018-03-20T09:32:42.171Z,3.27
2018-03-20T09:33:42.119Z,3.41
2018-03-20T09:34:42.066Z,3.32
2018-03-20T09:35:42.036Z,3.37
2018-03-20T09:36:41.966Z,3.37
2018-03-20T09:37:41.915Z,3.48
2018-03-20T09:38:41.860Z,3.44
2018-03-20T09:39:41.809Z,3.48
2018-03-20T09:40:41.783Z,3.62
2018-03-20T09:41:41.704Z,3.68
2018-03-20T09:42:41.652Z,3.77
2018-03-20T09:43:41.601Z,3.84
2018-03-20T09:44:45.369Z,3.76
2018-03-20T09:45:41.527Z,3.72
2018-03-20T09:46:42.742Z,3.76
2018-03-20T09:47:41.397Z,3.82
2018-03-20T09:48:41.347Z,3.98
2018-03-20T09:49:41.295Z,4.01
2018-03-20T09:50:41.260Z,3.98
2018-03-20T09:51:41.185Z,3.97
2018-03-20T09:52:41.132Z,3.94
2018-03-20T09:53:41.082Z,4.01
2018-03-20T09:54:41.034Z,4.01
2018-03-20T09:55:41.007Z,4.09
2018-03-20T09:56:40.928Z,4.00
2018-03-20T09:57:40.885Z,3.95
2018-03-20T09:58:40.828Z,4.02
2018-03-20T09:59:40.772Z,4.05
2018-03-20T10:00:40.749Z,4.12
2018-03-20T10:01:40.671Z,4.13
2018-03-20T10:02:40.622Z,4.19
2018-03-20T10:03:40.571Z,4.31
2018-03-20T10:04:40.518Z,4.34
2018-03-20T10:05:40.489Z,4.43
2018-03-20T10:06:40.416Z,4.53
2018-03-20T10:07:40.364Z,4.52
2018-03-20T10:08:40.315Z,4.52
2018-03-20T10:09:40.262Z,4.56
2018-03-20T10:10:40.235Z,4.49
2018-03-20T10:11:40.162Z,4.49
2018-03-20T10:12:40.140Z,4.49
2018-03-20T10:13:40.060Z,4.52
2018-03-20T10:14:40.005Z,4.49
2018-03-20T10:15:39.984Z,4.43
2018-03-20T10:16:39.902Z,4.49
2018-03-20T10:17:39.852Z,4.52
2018-03-20T10:18:39.801Z,4.37
2018-03-20T10:19:39.749Z,4.46
2018-03-20T10:20:39.720Z,4.37
2018-03-20T10:21:39.650Z,4.43
2018-03-20T10:22:39.598Z,4.51
2018-03-20T10:23:39.547Z,4.41
2018-03-20T10:24:39.496Z,4.34
2018-03-20T10:25:39.467Z,4.34
2018-03-20T10:26:39.393Z,4.35
2018-03-20T10:27:39.340Z,4.48
2018-03-20T10:28:39.291Z,4.55
2018-03-20T10:29:39.286Z,4.46
2018-03-20T10:30:39.213Z,4.51
2018-03-20T10:31:39.137Z,4.48
2018-03-20T10:32:39.082Z,4.46
2018-03-20T10:33:39.035Z,4.56
2018-03-20T10:34:38.986Z,4.66
2018-03-20T10:35:38.956Z,4.71
2018-03-20T10:36:38.880Z,4.77
2018-03-20T10:37:38.832Z,4.73
2018-03-20T10:38:38.781Z,4.70
2018-03-20T10:39:38.729Z,4.66
2018-03-20T10:40:38.700Z,4.80
2018-03-20T10:41:38.626Z,4.89
2018-03-20T10:42:38.576Z,4.96
2018-03-20T10:43:38.524Z,5.07
2018-03-20T10:44:38.478Z,5.10
2018-03-20T10:45:38.450Z,5.24
2018-03-20T10:46:38.370Z,5.14
2018-03-20T10:47:38.325Z,5.14
2018-03-20T10:48:38.270Z,5.17
2018-03-20T10:49:38.219Z,5.21
2018-03-20T10:50:38.194Z,5.21
2018-03-20T10:51:38.127Z,5.16
2018-03-20T10:52:38.068Z,5.19
2018-03-20T10:53:38.020Z,5.22
2018-03-20T10:54:37.966Z,5.28
2018-03-20T10:55:37.939Z,5.21
2018-03-20T10:56:37.862Z,5.16
2018-03-20T10:57:37.812Z,5.13
2018-03-20T10:58:37.762Z,5.17
2018-03-20T10:59:37.724Z,5.17
2018-03-20T11:00:37.687Z,5.26
2018-03-20T11:01:37.612Z,5.26
2018-03-20T11:02:37.560Z,5.40
2018-03-20T11:03:37.511Z,5.57
2018-03-20T11:04:37.460Z,5.35
2018-03-20T11:05:37.432Z,5.49
2018-03-20T11:06:37.357Z,5.50
2018-03-20T11:07:37.313Z,5.49
2018-03-20T11:08:37.258Z,5.50
2018-03-20T11:09:37.208Z,5.59
2018-03-20T11:10:37.180Z,5.74
2018-03-20T11:11:37.103Z,5.69
2018-03-20T11:12:37.112Z,5.54
2018-03-20T11:13:37.002Z,5.59
2018-03-20T11:14:36.957Z,5.57
2018-03-20T11:15:36.927Z,5.50
2018-03-20T11:16:36.884Z,5.43
2018-03-20T11:17:36.828Z,5.46
2018-03-20T11:18:36.752Z,5.46
2018-03-20T11:19:36.706Z,5.46
2018-03-20T11:20:36.677Z,5.44
2018-03-20T11:21:36.602Z,5.51
2018-03-20T11:22:36.550Z,5.50
2018-03-20T11:23:36.500Z,5.53
2018-03-20T11:24:36.466Z,5.62
2018-03-20T11:25:36.422Z,5.74
2018-03-20T11:26:36.346Z,5.71
2018-03-20T11:27:36.299Z,5.80
2018-03-20T11:28:36.246Z,5.79
2018-03-20T11:29:36.193Z,5.89
2018-03-20T11:30:36.170Z,5.95
2018-03-20T11:31:36.095Z,6.05
2018-03-20T11:32:36.045Z,6.08
2018-03-20T11:33:35.996Z,5.95
2018-03-20T11:34:35.943Z,5.83
2018-03-20T11:35:35.937Z,5.89
2018-03-20T11:36:35.840Z,5.86
2018-03-20T11:37:35.798Z,5.90
2018-03-20T11:38:35.743Z,5.83
2018-03-20T11:39:35.740Z,5.77
2018-03-20T11:40:35.666Z,5.72
2018-03-20T11:41:35.592Z,5.65
2018-03-20T11:42:35.541Z,5.65
2018-03-20T11:43:35.489Z,5.77
2018-03-20T11:44:35.439Z,5.68
2018-03-20T11:45:35.417Z,5.80
2018-03-20T11:46:35.339Z,5.94
2018-03-20T11:47:35.290Z,5.90
2018-03-20T11:48:35.242Z,6.08
2018-03-20T11:49:35.213Z,6.07
2018-03-20T11:50:35.157Z,6.05
2018-03-20T11:51:35.088Z,6.01
2018-03-20T11:52:35.035Z,5.97
2018-03-20T11:53:34.987Z,5.94
2018-03-20T11:54:34.940Z,6.01
2018-03-20T11:55:34.909Z,6.10
2018-03-20T11:56:34.832Z,6.10
2018-03-20T11:57:34.785Z,6.03
2018-03-20T11:58:34.734Z,6.00
2018-03-20T11:59:34.686Z,6.03
2018-03-20T12:00:34.661Z,6.05
2018-03-20T12:01:34.585Z,6.13
2018-03-20T12:02:34.536Z,6.18
2018-03-20T12:03:34.482Z,6.21
2018-03-20T12:04:34.435Z,6.18
2018-03-20T12:05:34.424Z,6.19
2018-03-20T12:06:34.334Z,6.18
2018-03-20T12:07:34.282Z,6.19
2018-03-20T12:08:34.245Z,6.04
2018-03-20T12:09:34.183Z,5.90
2018-03-20T12:10:34.133Z,5.95
2018-03-20T12:11:34.106Z,6.03
2018-03-20T12:12:34.030Z,6.01
2018-03-20T12:13:33.985Z,5.90
2018-03-20T12:14:33.933Z,6.01
2018-03-20T12:15:33.882Z,5.90
2018-03-20T12:16:33.858Z,5.94
2018-03-20T12:17:33.780Z,5.98
2018-03-20T12:18:33.733Z,5.95
2018-03-20T12:19:33.683Z,6.03
2018-03-20T12:20:33.630Z,6.05
2018-03-20T12:21:33.601Z,6.07
2018-03-20T12:22:33.528Z,6.08
2018-03-20T12:23:33.478Z,6.22
2018-03-20T12:24:33.430Z,6.32
2018-03-20T12:25:33.381Z,6.34
2018-03-20T12:26:33.353Z,6.22
2018-03-20T12:27:33.279Z,6.22
2018-03-20T12:28:33.228Z,6.22
2018-03-20T12:29:33.179Z,6.05
2018-03-20T12:30:33.127Z,6.13
2018-03-20T12:31:33.100Z,6.21
2018-03-20T12:32:33.027Z,6.27
2018-03-20T12:33:32.979Z,6.37
2018-03-20T12:34:32.926Z,6.35
2018-03-20T12:35:32.876Z,6.39
2018-03-20T12:36:32.847Z,6.16
2018-03-20T12:37:32.779Z,6.26
2018-03-20T12:38:32.728Z,6.26
2018-03-20T12:39:32.675Z,6.26
2018-03-20T12:40:32.628Z,6.27
2018-03-20T12:41:32.599Z,6.32
2018-03-20T12:42:32.532Z,6.37
2018-03-20T12:43:32.477Z,6.34
2018-03-20T12:44:32.425Z,6.37
2018-03-20T12:45:32.376Z,6.35
2018-03-20T12:46:32.386Z,6.38
2018-03-20T12:47:32.273Z,6.56
2018-03-20T12:48:32.228Z,6.49
2018-03-20T12:49:32.178Z,6.57
2018-03-20T12:50:32.124Z,6.60
2018-03-20T12:51:32.096Z,6.55
2018-03-20T12:52:32.024Z,6.56
2018-03-20T12:53:31.975Z,6.63
2018-03-20T12:54:31.957Z,6.52
2018-03-20T12:55:31.880Z,6.47
2018-03-20T12:56:31.850Z,6.44
2018-03-20T12:57:31.772Z,6.42
2018-03-20T12:58:31.730Z,6.42
2018-03-20T12:59:31.679Z,6.45
2018-03-20T13:00:31.626Z,6.37
2018-03-20T13:01:31.597Z,6.38
2018-03-20T13:02:31.527Z,6.39